sensor_id;sensor_type;location;lat;lon;timestamp;P1;durP1;ratioP1;P2;durP2;ratioP2
29430;SDS011;16404;49.902;10.074;2023-01-28T00:00:08;6.38;;;4.82;;
29430;SDS011;16404;49.902;10.074;2023-01-28T00:02:53;8.13;;;5.05;;
29430;SDS011;16404;49.902;10.074;2023-01-28T00:05:38;6.30;;;4.53;;
29430;SDS011;16404;49.902;10.074;2023-01-28T00:08:22;7.22;;;4.97;;
29430;SDS011;16404;49.902;10.074;2023-01-28T00:11:08;7.20;;;5.20;;
29430;SDS011;16404;49.902;10.074;2023-01-28T00:13:54;7.05;;;4.90;;
29430;SDS011;16404;49.902;10.074;2023-01-28T00:16:39;7.03;;;4.47;;
29430;SDS011;16404;49.902;10.074;2023-01-28T00:19:24;7.40;;;4.25;;
29430;SDS011;16404;49.902;10.074;2023-01-28T00:22:08;7.78;;;4.68;;
29430;SDS011;16404;49.902;10.074;2023-01-28T00:24:53;6.63;;;4.03;;
29430;SDS011;16404;49.902;10.074;2023-01-28T00:27:38;6.57;;;4.38;;
29430;SDS011;16404;49.902;10.074;2023-01-28T00:30:22;5.50;;;3.95;;
29430;SDS011;16404;49.902;10.074;2023-01-28T00:33:07;7.07;;;4.40;;
29430;SDS011;16404;49.902;10.074;2023-01-28T00:35:58;6.18;;;4.32;;
29430;SDS011;16404;49.902;10.074;2023-01-28T00:38:48;6.15;;;3.97;;
29430;SDS011;16404;49.902;10.074;2023-01-28T00:41:54;7.05;;;4.22;;
29430;SDS011;16404;49.902;10.074;2023-01-28T00:44:41;6.97;;;4.20;;
29430;SDS011;16404;49.902;10.074;2023-01-28T00:47:26;6.20;;;4.07;;
29430;SDS011;16404;49.902;10.074;2023-01-28T00:50:10;7.95;;;4.55;;
29430;SDS011;16404;49.902;10.074;2023-01-28T00:52:55;6.70;;;4.47;;
29430;SDS011;16404;49.902;10.074;2023-01-28T00:55:41;7.65;;;4.60;;
29430;SDS011;16404;49.902;10.074;2023-01-28T00:58:26;8.10;;;4.22;;
29430;SDS011;16404;49.902;10.074;2023-01-28T01:01:11;7.20;;;4.28;;
29430;SDS011;16404;49.902;10.074;2023-01-28T01:03:59;6.32;;;4.45;;
29430;SDS011;16404;49.902;10.074;2023-01-28T01:06:47;7.10;;;4.40;;
29430;SDS011;16404;49.902;10.074;2023-01-28T01:09:32;6.80;;;4.75;;
29430;SDS011;16404;49.902;10.074;2023-01-28T01:12:17;7.43;;;4.88;;
29430;SDS011;16404;49.902;10.074;2023-01-28T01:20:33;8.77;;;5.20;;
29430;SDS011;16404;49.902;10.074;2023-01-28T01:23:22;8.32;;;4.93;;
29430;SDS011;16404;49.902;10.074;2023-01-28T01:26:10;7.22;;;4.70;;
29430;SDS011;16404;49.902;10.074;2023-01-28T01:28:55;8.93;;;5.45;;
29430;SDS011;16404;49.902;10.074;2023-01-28T01:31:40;7.78;;;4.72;;
29430;SDS011;16404;49.902;10.074;2023-01-28T01:34:24;7.25;;;5.05;;
29430;SDS011;16404;49.902;10.074;2023-01-28T01:37:09;9.63;;;5.35;;
29430;SDS011;16404;49.902;10.074;2023-01-28T01:39:54;8.32;;;4.97;;
29430;SDS011;16404;49.902;10.074;2023-01-28T01:42:39;7.50;;;4.50;;
29430;SDS011;16404;49.902;10.074;2023-01-28T01:45:25;5.47;;;3.90;;
29430;SDS011;16404;49.902;10.074;2023-01-28T01:48:27;7.25;;;4.80;;
29430;SDS011;16404;49.902;10.074;2023-01-28T01:51:18;7.10;;;4.47;;
29430;SDS011;16404;49.902;10.074;2023-01-28T01:54:08;7.22;;;4.88;;
29430;SDS011;16404;49.902;10.074;2023-01-28T01:56:53;8.88;;;5.30;;
29430;SDS011;16404;49.902;10.074;2023-01-28T01:59:40;9.25;;;5.10;;
29430;SDS011;16404;49.902;10.074;2023-01-28T02:02:26;7.68;;;4.63;;
29430;SDS011;16404;49.902;10.074;2023-01-28T02:05:12;8.90;;;5.05;;
29430;SDS011;16404;49.902;10.074;2023-01-28T02:07:59;7.78;;;5.13;;
29430;SDS011;16404;49.902;10.074;2023-01-28T02:11:03;7.03;;;4.28;;
29430;SDS011;16404;49.902;10.074;2023-01-28T02:13:51;9.18;;;4.93;;
29430;SDS011;16404;49.902;10.074;2023-01-28T02:16:39;8.77;;;5.35;;
29430;SDS011;16404;49.902;10.074;2023-01-28T02:19:24;6.78;;;4.57;;
29430;SDS011;16404;49.902;10.074;2023-01-28T02:32:04;8.88;;;5.13;;
29430;SDS011;16404;49.902;10.074;2023-01-28T02:34:58;7.32;;;4.40;;
29430;SDS011;16404;49.902;10.074;2023-01-28T02:37:52;8.18;;;4.70;;
29430;SDS011;16404;49.902;10.074;2023-01-28T02:40:47;7.80;;;4.85;;
29430;SDS011;16404;49.902;10.074;2023-01-28T02:46:37;6.70;;;4.60;;
29430;SDS011;16404;49.902;10.074;2023-01-28T02:49:45;7.47;;;4.53;;
29430;SDS011;16404;49.902;10.074;2023-01-28T02:59:10;8.13;;;4.60;;
29430;SDS011;16404;49.902;10.074;2023-01-28T03:05:25;9.25;;;4.88;;
29430;SDS011;16404;49.902;10.074;2023-01-28T03:08:14;8.02;;;4.70;;
29430;SDS011;16404;49.902;10.074;2023-01-28T03:11:19;8.38;;;4.60;;
29430;SDS011;16404;49.902;10.074;2023-01-28T03:14:23;7.45;;;4.60;;
29430;SDS011;16404;49.902;10.074;2023-01-28T03:17:47;7.45;;;4.35;;
29430;SDS011;16404;49.902;10.074;2023-01-28T03:21:03;7.05;;;4.55;;
29430;SDS011;16404;49.902;10.074;2023-01-28T03:24:11;6.55;;;4.20;;
29430;SDS011;16404;49.902;10.074;2023-01-28T03:27:32;6.85;;;4.60;;
29430;SDS011;16404;49.902;10.074;2023-01-28T03:33:58;6.13;;;4.07;;
29430;SDS011;16404;49.902;10.074;2023-01-28T03:37:02;7.05;;;4.22;;
29430;SDS011;16404;49.902;10.074;2023-01-28T03:40:05;7.13;;;4.10;;
29430;SDS011;16404;49.902;10.074;2023-01-28T03:42:50;7.60;;;3.90;;
29430;SDS011;16404;49.902;10.074;2023-01-28T03:45:50;8.35;;;3.92;;
29430;SDS011;16404;49.902;10.074;2023-01-28T03:48:35;7.95;;;4.40;;
29430;SDS011;16404;49.902;10.074;2023-01-28T03:51:23;6.97;;;4.47;;
29430;SDS011;16404;49.902;10.074;2023-01-28T03:54:07;7.13;;;4.30;;
29430;SDS011;16404;49.902;10.074;2023-01-28T03:56:52;7.25;;;4.60;;
29430;SDS011;16404;49.902;10.074;2023-01-28T03:59:36;7.30;;;4.72;;
29430;SDS011;16404;49.902;10.074;2023-01-28T04:02:21;6.65;;;4.55;;
29430;SDS011;16404;49.902;10.074;2023-01-28T04:05:09;7.05;;;4.43;;
29430;SDS011;16404;49.902;10.074;2023-01-28T04:08:01;7.07;;;4.55;;
29430;SDS011;16404;49.902;10.074;2023-01-28T04:11:02;6.22;;;4.28;;
29430;SDS011;16404;49.902;10.074;2023-01-28T04:14:07;7.95;;;4.25;;
29430;SDS011;16404;49.902;10.074;2023-01-28T04:17:00;7.50;;;4.93;;
29430;SDS011;16404;49.902;10.074;2023-01-28T04:19:45;7.82;;;4.78;;
29430;SDS011;16404;49.902;10.074;2023-01-28T04:22:30;6.35;;;4.30;;
29430;SDS011;16404;49.902;10.074;2023-01-28T04:25:14;7.78;;;5.05;;
29430;SDS011;16404;49.902;10.074;2023-01-28T04:28:00;7.53;;;4.78;;
29430;SDS011;16404;49.902;10.074;2023-01-28T04:30:47;7.82;;;4.95;;
29430;SDS011;16404;49.902;10.074;2023-01-28T04:33:49;7.78;;;5.22;;
29430;SDS011;16404;49.902;10.074;2023-01-28T04:36:54;7.65;;;5.22;;
29430;SDS011;16404;49.902;10.074;2023-01-28T04:40:11;9.18;;;4.95;;
29430;SDS011;16404;49.902;10.074;2023-01-28T04:43:11;7.80;;;5.25;;
29430;SDS011;16404;49.902;10.074;2023-01-28T04:46:11;8.30;;;5.25;;
29430;SDS011;16404;49.902;10.074;2023-01-28T04:49:09;8.00;;;5.35;;
29430;SDS011;16404;49.902;10.074;2023-01-28T04:52:17;11.32;;;5.38;;
29430;SDS011;16404;49.902;10.074;2023-01-28T04:55:21;8.68;;;5.80;;
29430;SDS011;16404;49.902;10.074;2023-01-28T04:58:07;8.18;;;5.82;;
29430;SDS011;16404;49.902;10.074;2023-01-28T05:00:53;9.63;;;5.93;;
29430;SDS011;16404;49.902;10.074;2023-01-28T05:03:38;8.23;;;6.07;;
29430;SDS011;16404;49.902;10.074;2023-01-28T05:06:24;7.90;;;5.32;;
29430;SDS011;16404;49.902;10.074;2023-01-28T05:09:13;9.95;;;6.28;;
29430;SDS011;16404;49.902;10.074;2023-01-28T05:11:58;10.25;;;6.28;;
29430;SDS011;16404;49.902;10.074;2023-01-28T05:14:42;8.90;;;6.15;;
29430;SDS011;16404;49.902;10.074;2023-01-28T05:17:32;9.90;;;6.22;;
29430;SDS011;16404;49.902;10.074;2023-01-28T05:20:17;9.30;;;6.18;;
29430;SDS011;16404;49.902;10.074;2023-01-28T05:23:04;12.52;;;6.20;;
29430;SDS011;16404;49.902;10.074;2023-01-28T05:26:08;10.80;;;6.55;;
29430;SDS011;16404;49.902;10.074;2023-01-28T05:28:52;12.27;;;6.78;;
29430;SDS011;16404;49.902;10.074;2023-01-28T05:31:37;11.98;;;7.13;;
29430;SDS011;16404;49.902;10.074;2023-01-28T05:34:22;10.43;;;6.40;;
29430;SDS011;16404;49.902;10.074;2023-01-28T05:37:07;9.43;;;6.10;;
29430;SDS011;16404;49.902;10.074;2023-01-28T05:39:54;10.73;;;6.55;;
29430;SDS011;16404;49.902;10.074;2023-01-28T05:42:39;10.07;;;6.78;;
29430;SDS011;16404;49.902;10.074;2023-01-28T05:45:38;11.15;;;7.55;;
29430;SDS011;16404;49.902;10.074;2023-01-28T05:48:27;11.20;;;7.13;;
29430;SDS011;16404;49.902;10.074;2023-01-28T05:51:35;12.65;;;7.93;;
29430;SDS011;16404;49.902;10.074;2023-01-28T05:54:22;12.02;;;8.10;;
29430;SDS011;16404;49.902;10.074;2023-01-28T05:57:07;13.05;;;7.72;;
29430;SDS011;16404;49.902;10.074;2023-01-28T05:59:51;14.57;;;8.23;;
29430;SDS011;16404;49.902;10.074;2023-01-28T06:02:36;12.98;;;8.30;;
29430;SDS011;16404;49.902;10.074;2023-01-28T06:05:21;15.05;;;7.85;;
29430;SDS011;16404;49.902;10.074;2023-01-28T06:08:06;11.30;;;7.45;;
29430;SDS011;16404;49.902;10.074;2023-01-28T06:13:35;14.23;;;8.15;;
29430;SDS011;16404;49.902;10.074;2023-01-28T06:16:39;14.82;;;7.85;;
29430;SDS011;16404;49.902;10.074;2023-01-28T06:19:43;14.55;;;8.40;;
29430;SDS011;16404;49.902;10.074;2023-01-28T06:22:28;12.52;;;7.95;;
29430;SDS011;16404;49.902;10.074;2023-01-28T06:25:13;15.27;;;8.90;;
29430;SDS011;16404;49.902;10.074;2023-01-28T06:27:57;14.55;;;8.45;;
29430;SDS011;16404;49.902;10.074;2023-01-28T06:30:42;16.38;;;8.95;;
29430;SDS011;16404;49.902;10.074;2023-01-28T06:33:27;12.85;;;7.90;;
29430;SDS011;16404;49.902;10.074;2023-01-28T06:36:12;21.13;;;8.55;;
29430;SDS011;16404;49.902;10.074;2023-01-28T06:38:57;14.05;;;8.40;;
29430;SDS011;16404;49.902;10.074;2023-01-28T06:41:41;12.65;;;7.82;;
29430;SDS011;16404;49.902;10.074;2023-01-28T06:44:26;11.73;;;7.88;;
29430;SDS011;16404;49.902;10.074;2023-01-28T06:47:10;15.60;;;8.68;;
29430;SDS011;16404;49.902;10.074;2023-01-28T06:49:57;15.70;;;8.27;;
29430;SDS011;16404;49.902;10.074;2023-01-28T06:52:41;15.15;;;8.57;;
29430;SDS011;16404;49.902;10.074;2023-01-28T06:55:26;14.60;;;8.00;;
29430;SDS011;16404;49.902;10.074;2023-01-28T06:58:11;12.98;;;8.23;;
29430;SDS011;16404;49.902;10.074;2023-01-28T07:00:56;14.60;;;8.50;;
29430;SDS011;16404;49.902;10.074;2023-01-28T07:03:41;14.73;;;8.73;;
29430;SDS011;16404;49.902;10.074;2023-01-28T07:06:25;14.98;;;8.30;;
29430;SDS011;16404;49.902;10.074;2023-01-28T07:09:10;13.55;;;8.40;;
29430;SDS011;16404;49.902;10.074;2023-01-28T07:11:54;16.52;;;9.13;;
29430;SDS011;16404;49.902;10.074;2023-01-28T07:14:39;13.70;;;8.70;;
29430;SDS011;16404;49.902;10.074;2023-01-28T07:17:24;13.25;;;8.15;;
29430;SDS011;16404;49.902;10.074;2023-01-28T07:20:09;13.98;;;8.30;;
29430;SDS011;16404;49.902;10.074;2023-01-28T07:22:55;13.82;;;8.70;;
29430;SDS011;16404;49.902;10.074;2023-01-28T07:25:39;12.38;;;8.20;;
29430;SDS011;16404;49.902;10.074;2023-01-28T07:28:24;13.85;;;8.23;;
29430;SDS011;16404;49.902;10.074;2023-01-28T07:31:09;14.85;;;8.50;;
29430;SDS011;16404;49.902;10.074;2023-01-28T07:33:53;14.70;;;8.85;;
29430;SDS011;16404;49.902;10.074;2023-01-28T07:36:38;15.00;;;8.18;;
29430;SDS011;16404;49.902;10.074;2023-01-28T07:39:23;15.75;;;8.55;;
29430;SDS011;16404;49.902;10.074;2023-01-28T07:42:07;13.40;;;8.65;;
29430;SDS011;16404;49.902;10.074;2023-01-28T07:44:54;16.00;;;8.68;;
29430;SDS011;16404;49.902;10.074;2023-01-28T07:47:39;13.65;;;8.70;;
29430;SDS011;16404;49.902;10.074;2023-01-28T07:50:23;15.95;;;8.90;;
29430;SDS011;16404;49.902;10.074;2023-01-28T07:53:09;14.85;;;8.15;;
29430;SDS011;16404;49.902;10.074;2023-01-28T07:55:58;16.40;;;8.02;;
29430;SDS011;16404;49.902;10.074;2023-01-28T07:58:44;15.73;;;8.20;;
29430;SDS011;16404;49.902;10.074;2023-01-28T08:01:28;13.98;;;8.25;;
29430;SDS011;16404;49.902;10.074;2023-01-28T08:04:13;14.13;;;8.05;;
29430;SDS011;16404;49.902;10.074;2023-01-28T08:06:58;15.10;;;8.23;;
29430;SDS011;16404;49.902;10.074;2023-01-28T08:09:43;12.10;;;7.28;;
29430;SDS011;16404;49.902;10.074;2023-01-28T08:12:27;12.93;;;8.02;;
29430;SDS011;16404;49.902;10.074;2023-01-28T08:15:12;11.65;;;7.60;;
29430;SDS011;16404;49.902;10.074;2023-01-28T08:17:57;14.38;;;8.27;;
29430;SDS011;16404;49.902;10.074;2023-01-28T08:20:42;15.02;;;7.78;;
29430;SDS011;16404;49.902;10.074;2023-01-28T08:23:27;14.27;;;7.45;;
29430;SDS011;16404;49.902;10.074;2023-01-28T08:28:57;13.75;;;7.63;;
29430;SDS011;16404;49.902;10.074;2023-01-28T08:31:42;13.13;;;7.15;;
29430;SDS011;16404;49.902;10.074;2023-01-28T08:34:26;11.63;;;7.38;;
29430;SDS011;16404;49.902;10.074;2023-01-28T08:37:11;14.52;;;7.63;;
29430;SDS011;16404;49.902;10.074;2023-01-28T08:39:56;14.77;;;7.88;;
29430;SDS011;16404;49.902;10.074;2023-01-28T08:42:45;10.93;;;7.35;;
29430;SDS011;16404;49.902;10.074;2023-01-28T08:45:31;12.25;;;7.50;;
29430;SDS011;16404;49.902;10.074;2023-01-28T08:48:17;12.77;;;7.35;;
29430;SDS011;16404;49.902;10.074;2023-01-28T08:51:02;11.05;;;7.22;;
29430;SDS011;16404;49.902;10.074;2023-01-28T08:53:46;12.65;;;7.53;;
29430;SDS011;16404;49.902;10.074;2023-01-28T08:56:31;13.88;;;7.88;;
29430;SDS011;16404;49.902;10.074;2023-01-28T08:59:16;14.15;;;8.30;;
29430;SDS011;16404;49.902;10.074;2023-01-28T09:02:01;12.30;;;7.53;;
29430;SDS011;16404;49.902;10.074;2023-01-28T09:04:45;12.10;;;8.18;;
29430;SDS011;16404;49.902;10.074;2023-01-28T09:07:30;13.90;;;8.25;;
29430;SDS011;16404;49.902;10.074;2023-01-28T09:10:17;11.90;;;7.75;;
29430;SDS011;16404;49.902;10.074;2023-01-28T09:13:04;9.82;;;7.03;;
29430;SDS011;16404;49.902;10.074;2023-01-28T09:15:54;10.18;;;7.45;;
29430;SDS011;16404;49.902;10.074;2023-01-28T09:18:39;10.38;;;7.25;;
29430;SDS011;16404;49.902;10.074;2023-01-28T09:21:24;10.77;;;7.18;;
29430;SDS011;16404;49.902;10.074;2023-01-28T09:24:09;11.50;;;7.10;;
29430;SDS011;16404;49.902;10.074;2023-01-28T09:26:54;11.32;;;7.00;;
29430;SDS011;16404;49.902;10.074;2023-01-28T09:29:39;11.50;;;7.22;;
29430;SDS011;16404;49.902;10.074;2023-01-28T09:32:24;14.48;;;7.38;;
29430;SDS011;16404;49.902;10.074;2023-01-28T09:35:08;10.75;;;7.13;;
29430;SDS011;16404;49.902;10.074;2023-01-28T09:37:55;10.13;;;7.03;;
29430;SDS011;16404;49.902;10.074;2023-01-28T09:40:42;14.55;;;7.53;;
29430;SDS011;16404;49.902;10.074;2023-01-28T09:43:33;8.40;;;6.22;;
29430;SDS011;16404;49.902;10.074;2023-01-28T09:46:44;9.13;;;6.78;;
29430;SDS011;16404;49.902;10.074;2023-01-28T09:52:29;9.80;;;7.20;;
29430;SDS011;16404;49.902;10.074;2023-01-28T09:55:24;10.77;;;6.85;;
29430;SDS011;16404;49.902;10.074;2023-01-28T09:58:18;9.68;;;6.72;;
29430;SDS011;16404;49.902;10.074;2023-01-28T10:01:05;8.20;;;6.43;;
29430;SDS011;16404;49.902;10.074;2023-01-28T10:10:12;9.25;;;6.78;;
29430;SDS011;16404;49.902;10.074;2023-01-28T10:13:19;10.23;;;7.00;;
29430;SDS011;16404;49.902;10.074;2023-01-28T10:16:30;10.88;;;6.28;;
29430;SDS011;16404;49.902;10.074;2023-01-28T10:19:28;9.73;;;6.93;;
29430;SDS011;16404;49.902;10.074;2023-01-28T10:22:28;10.48;;;6.47;;
29430;SDS011;16404;49.902;10.074;2023-01-28T10:25:18;9.50;;;6.20;;
29430;SDS011;16404;49.902;10.074;2023-01-28T10:28:04;8.52;;;5.70;;
29430;SDS011;16404;49.902;10.074;2023-01-28T10:31:12;9.32;;;5.57;;
29430;SDS011;16404;49.902;10.074;2023-01-28T10:33:59;6.45;;;4.60;;
29430;SDS011;16404;49.902;10.074;2023-01-28T10:36:45;8.57;;;5.38;;
29430;SDS011;16404;49.902;10.074;2023-01-28T10:39:31;6.03;;;4.72;;
29430;SDS011;16404;49.902;10.074;2023-01-28T10:42:27;7.68;;;5.13;;
29430;SDS011;16404;49.902;10.074;2023-01-28T10:48:43;8.02;;;5.50;;
29430;SDS011;16404;49.902;10.074;2023-01-28T10:51:38;6.55;;;5.43;;
29430;SDS011;16404;49.902;10.074;2023-01-28T10:54:26;6.18;;;5.30;;
29430;SDS011;16404;49.902;10.074;2023-01-28T10:57:15;7.55;;;5.10;;
29430;SDS011;16404;49.902;10.074;2023-01-28T11:00:09;6.75;;;5.30;;
29430;SDS011;16404;49.902;10.074;2023-01-28T11:03:16;6.07;;;4.97;;
29430;SDS011;16404;49.902;10.074;2023-01-28T11:06:02;7.07;;;5.63;;
29430;SDS011;16404;49.902;10.074;2023-01-28T11:08:46;6.72;;;5.07;;
29430;SDS011;16404;49.902;10.074;2023-01-28T11:11:31;9.88;;;5.90;;
29430;SDS011;16404;49.902;10.074;2023-01-28T11:14:23;7.78;;;6.35;;
29430;SDS011;16404;49.902;10.074;2023-01-28T11:17:14;7.65;;;5.95;;
29430;SDS011;16404;49.902;10.074;2023-01-28T11:23:21;6.45;;;5.13;;
29430;SDS011;16404;49.902;10.074;2023-01-28T11:26:12;7.75;;;6.18;;
29430;SDS011;16404;49.902;10.074;2023-01-28T11:29:00;9.05;;;6.18;;
29430;SDS011;16404;49.902;10.074;2023-01-28T11:31:45;7.45;;;6.57;;
29430;SDS011;16404;49.902;10.074;2023-01-28T11:34:32;6.60;;;5.90;;
29430;SDS011;16404;49.902;10.074;2023-01-28T11:37:19;7.85;;;5.70;;
29430;SDS011;16404;49.902;10.074;2023-01-28T11:40:13;7.93;;;5.85;;
29430;SDS011;16404;49.902;10.074;2023-01-28T11:43:04;4.88;;;4.32;;
29430;SDS011;16404;49.902;10.074;2023-01-28T11:57:52;6.50;;;5.10;;
29430;SDS011;16404;49.902;10.074;2023-01-28T12:00:37;5.43;;;4.90;;
29430;SDS011;16404;49.902;10.074;2023-01-28T12:06:38;6.22;;;4.93;;
29430;SDS011;16404;49.902;10.074;2023-01-28T12:09:34;7.88;;;5.63;;
29430;SDS011;16404;49.902;10.074;2023-01-28T12:28:12;10.50;;;6.60;;
29430;SDS011;16404;49.902;10.074;2023-01-28T12:40:41;8.00;;;5.40;;
29430;SDS011;16404;49.902;10.074;2023-01-28T12:43:57;8.27;;;5.47;;
29430;SDS011;16404;49.902;10.074;2023-01-28T12:52:57;8.88;;;6.50;;
29430;SDS011;16404;49.902;10.074;2023-01-28T12:55:46;10.25;;;7.40;;
29430;SDS011;16404;49.902;10.074;2023-01-28T12:58:36;6.68;;;4.90;;
29430;SDS011;16404;49.902;10.074;2023-01-28T13:01:27;8.95;;;6.95;;
29430;SDS011;16404;49.902;10.074;2023-01-28T13:07:26;6.90;;;4.80;;
29430;SDS011;16404;49.902;10.074;2023-01-28T13:10:41;8.18;;;5.90;;
29430;SDS011;16404;49.902;10.074;2023-01-28T13:13:37;5.00;;;4.53;;
29430;SDS011;16404;49.902;10.074;2023-01-28T13:16:25;8.70;;;4.55;;
29430;SDS011;16404;49.902;10.074;2023-01-28T13:22:08;8.23;;;6.13;;
29430;SDS011;16404;49.902;10.074;2023-01-28T13:28:21;4.30;;;3.40;;
29430;SDS011;16404;49.902;10.074;2023-01-28T13:31:16;18.92;;;5.80;;
29430;SDS011;16404;49.902;10.074;2023-01-28T13:34:03;11.15;;;6.00;;
29430;SDS011;16404;49.902;10.074;2023-01-28T13:36:48;9.38;;;5.43;;
29430;SDS011;16404;49.902;10.074;2023-01-28T13:39:33;8.70;;;4.35;;
29430;SDS011;16404;49.902;10.074;2023-01-28T13:42:24;8.85;;;5.13;;
29430;SDS011;16404;49.902;10.074;2023-01-28T13:48:07;7.97;;;5.05;;
29430;SDS011;16404;49.902;10.074;2023-01-28T13:51:03;6.60;;;5.40;;
29430;SDS011;16404;49.902;10.074;2023-01-28T13:54:01;9.32;;;5.15;;
29430;SDS011;16404;49.902;10.074;2023-01-28T13:57:02;6.28;;;4.15;;
29430;SDS011;16404;49.902;10.074;2023-01-28T14:06:44;6.18;;;4.50;;
29430;SDS011;16404;49.902;10.074;2023-01-28T14:10:02;7.85;;;4.85;;
29430;SDS011;16404;49.902;10.074;2023-01-28T14:19:49;7.28;;;4.75;;
29430;SDS011;16404;49.902;10.074;2023-01-28T14:22:35;15.75;;;9.02;;
29430;SDS011;16404;49.902;10.074;2023-01-28T14:25:27;9.30;;;6.28;;
29430;SDS011;16404;49.902;10.074;2023-01-28T14:31:33;5.88;;;4.15;;
29430;SDS011;16404;49.902;10.074;2023-01-28T14:34:28;5.45;;;3.60;;
29430;SDS011;16404;49.902;10.074;2023-01-28T14:37:17;6.38;;;3.65;;
29430;SDS011;16404;49.902;10.074;2023-01-28T14:40:10;5.32;;;3.58;;
29430;SDS011;16404;49.902;10.074;2023-01-28T14:42:57;6.93;;;3.80;;
29430;SDS011;16404;49.902;10.074;2023-01-28T14:45:56;4.63;;;3.25;;
29430;SDS011;16404;49.902;10.074;2023-01-28T14:49:32;4.93;;;3.30;;
29430;SDS011;16404;49.902;10.074;2023-01-28T14:52:43;3.53;;;3.00;;
29430;SDS011;16404;49.902;10.074;2023-01-28T15:01:57;6.45;;;4.57;;
29430;SDS011;16404;49.902;10.074;2023-01-28T15:04:43;5.93;;;4.25;;
29430;SDS011;16404;49.902;10.074;2023-01-28T15:07:27;5.55;;;4.15;;
29430;SDS011;16404;49.902;10.074;2023-01-28T15:13:04;9.65;;;6.10;;
29430;SDS011;16404;49.902;10.074;2023-01-28T15:15:49;28.67;;;16.58;;
29430;SDS011;16404;49.902;10.074;2023-01-28T15:18:39;9.32;;;6.20;;
29430;SDS011;16404;49.902;10.074;2023-01-28T15:21:26;8.43;;;6.28;;
29430;SDS011;16404;49.902;10.074;2023-01-28T15:24:13;9.60;;;4.00;;
29430;SDS011;16404;49.902;10.074;2023-01-28T15:26:58;5.80;;;4.00;;
29430;SDS011;16404;49.902;10.074;2023-01-28T15:29:49;5.07;;;3.90;;
29430;SDS011;16404;49.902;10.074;2023-01-28T15:32:34;8.18;;;4.25;;
29430;SDS011;16404;49.902;10.074;2023-01-28T15:35:19;6.90;;;4.10;;
29430;SDS011;16404;49.902;10.074;2023-01-28T15:38:04;6.38;;;5.07;;
29430;SDS011;16404;49.902;10.074;2023-01-28T15:41:01;6.18;;;4.63;;
29430;SDS011;16404;49.902;10.074;2023-01-28T15:43:48;8.27;;;4.63;;
29430;SDS011;16404;49.902;10.074;2023-01-28T15:46:35;7.20;;;4.53;;
29430;SDS011;16404;49.902;10.074;2023-01-28T15:49:22;8.85;;;5.10;;
29430;SDS011;16404;49.902;10.074;2023-01-28T15:52:13;6.32;;;4.07;;
29430;SDS011;16404;49.902;10.074;2023-01-28T15:54:58;5.97;;;4.15;;
29430;SDS011;16404;49.902;10.074;2023-01-28T15:57:43;10.23;;;5.20;;
29430;SDS011;16404;49.902;10.074;2023-01-28T16:00:27;9.52;;;5.22;;
29430;SDS011;16404;49.902;10.074;2023-01-28T16:03:17;6.55;;;4.63;;
29430;SDS011;16404;49.902;10.074;2023-01-28T16:08:55;7.57;;;5.93;;
29430;SDS011;16404;49.902;10.074;2023-01-28T16:11:44;8.32;;;6.22;;
29430;SDS011;16404;49.902;10.074;2023-01-28T16:14:50;9.23;;;5.35;;
29430;SDS011;16404;49.902;10.074;2023-01-28T16:17:40;6.30;;;3.95;;
29430;SDS011;16404;49.902;10.074;2023-01-28T16:20:33;6.80;;;4.07;;
29430;SDS011;16404;49.902;10.074;2023-01-28T16:23:22;4.32;;;3.92;;
29430;SDS011;16404;49.902;10.074;2023-01-28T16:26:20;5.45;;;4.22;;
29430;SDS011;16404;49.902;10.074;2023-01-28T16:29:13;11.50;;;4.30;;
29430;SDS011;16404;49.902;10.074;2023-01-28T16:31:59;5.97;;;4.18;;
29430;SDS011;16404;49.902;10.074;2023-01-28T16:34:45;8.55;;;4.85;;
29430;SDS011;16404;49.902;10.074;2023-01-28T16:37:30;6.45;;;4.68;;
29430;SDS011;16404;49.902;10.074;2023-01-28T16:40:16;6.70;;;4.57;;
29430;SDS011;16404;49.902;10.074;2023-01-28T16:43:03;8.30;;;4.30;;
29430;SDS011;16404;49.902;10.074;2023-01-28T16:45:48;6.28;;;4.32;;
29430;SDS011;16404;49.902;10.074;2023-01-28T16:48:32;9.25;;;4.15;;
29430;SDS011;16404;49.902;10.074;2023-01-28T16:51:17;8.07;;;4.72;;
29430;SDS011;16404;49.902;10.074;2023-01-28T16:56:47;5.25;;;4.50;;
29430;SDS011;16404;49.902;10.074;2023-01-28T17:02:16;7.85;;;5.13;;
29430;SDS011;16404;49.902;10.074;2023-01-28T17:05:00;10.10;;;5.70;;
29430;SDS011;16404;49.902;10.074;2023-01-28T17:07:45;11.68;;;7.43;;
29430;SDS011;16404;49.902;10.074;2023-01-28T17:10:32;8.38;;;5.93;;
29430;SDS011;16404;49.902;10.074;2023-01-28T17:13:17;9.00;;;5.57;;
29430;SDS011;16404;49.902;10.074;2023-01-28T17:16:02;10.25;;;5.13;;
29430;SDS011;16404;49.902;10.074;2023-01-28T17:18:51;9.48;;;5.63;;
29430;SDS011;16404;49.902;10.074;2023-01-28T17:21:36;12.95;;;5.47;;
29430;SDS011;16404;49.902;10.074;2023-01-28T17:24:20;9.15;;;5.75;;
29430;SDS011;16404;49.902;10.074;2023-01-28T17:27:05;10.45;;;6.47;;
29430;SDS011;16404;49.902;10.074;2023-01-28T17:29:50;10.77;;;6.50;;
29430;SDS011;16404;49.902;10.074;2023-01-28T17:32:36;7.38;;;5.10;;
29430;SDS011;16404;49.902;10.074;2023-01-28T17:35:21;15.32;;;9.15;;
29430;SDS011;16404;49.902;10.074;2023-01-28T17:38:05;21.05;;;11.15;;
29430;SDS011;16404;49.902;10.074;2023-01-28T17:40:50;20.33;;;9.40;;
29430;SDS011;16404;49.902;10.074;2023-01-28T17:43:34;10.50;;;7.20;;
29430;SDS011;16404;49.902;10.074;2023-01-28T17:46:19;9.68;;;7.35;;
29430;SDS011;16404;49.902;10.074;2023-01-28T17:49:05;9.60;;;6.50;;
29430;SDS011;16404;49.902;10.074;2023-01-28T17:51:49;8.38;;;5.57;;
29430;SDS011;16404;49.902;10.074;2023-01-28T17:54:36;8.75;;;5.45;;
29430;SDS011;16404;49.902;10.074;2023-01-28T17:57:20;8.77;;;6.43;;
29430;SDS011;16404;49.902;10.074;2023-01-28T18:00:05;10.88;;;7.93;;
29430;SDS011;16404;49.902;10.074;2023-01-28T18:02:55;7.15;;;5.10;;
29430;SDS011;16404;49.902;10.074;2023-01-28T18:05:40;6.00;;;5.38;;
29430;SDS011;16404;49.902;10.074;2023-01-28T18:08:25;8.57;;;5.80;;
29430;SDS011;16404;49.902;10.074;2023-01-28T18:13:56;6.15;;;4.30;;
29430;SDS011;16404;49.902;10.074;2023-01-28T18:16:41;10.10;;;4.82;;
29430;SDS011;16404;49.902;10.074;2023-01-28T18:19:25;6.97;;;4.65;;
29430;SDS011;16404;49.902;10.074;2023-01-28T18:22:10;7.32;;;5.10;;
29430;SDS011;16404;49.902;10.074;2023-01-28T18:24:54;7.38;;;4.82;;
29430;SDS011;16404;49.902;10.074;2023-01-28T18:27:39;5.93;;;4.93;;
29430;SDS011;16404;49.902;10.074;2023-01-28T18:30:23;7.10;;;5.18;;
29430;SDS011;16404;49.902;10.074;2023-01-28T18:33:08;6.07;;;5.00;;
29430;SDS011;16404;49.902;10.074;2023-01-28T18:35:53;5.55;;;4.63;;
29430;SDS011;16404;49.902;10.074;2023-01-28T18:38:37;6.15;;;4.57;;
29430;SDS011;16404;49.902;10.074;2023-01-28T18:41:22;7.45;;;5.03;;
29430;SDS011;16404;49.902;10.074;2023-01-28T18:44:07;6.82;;;5.03;;
29430;SDS011;16404;49.902;10.074;2023-01-28T18:46:52;9.60;;;5.30;;
29430;SDS011;16404;49.902;10.074;2023-01-28T18:49:39;7.45;;;5.10;;
29430;SDS011;16404;49.902;10.074;2023-01-28T18:52:24;9.60;;;5.68;;
29430;SDS011;16404;49.902;10.074;2023-01-28T18:55:09;10.88;;;5.03;;
29430;SDS011;16404;49.902;10.074;2023-01-28T18:57:54;8.13;;;4.88;;
29430;SDS011;16404;49.902;10.074;2023-01-28T19:00:39;6.68;;;5.03;;
29430;SDS011;16404;49.902;10.074;2023-01-28T19:03:24;10.55;;;5.85;;
29430;SDS011;16404;49.902;10.074;2023-01-28T19:06:09;7.38;;;5.57;;
29430;SDS011;16404;49.902;10.074;2023-01-28T19:08:56;9.63;;;6.22;;